sensor_id;sensor_type;location;lat;lon;timestamp;P1;durP1;ratioP1;P2;durP2;ratioP2
33491;SDS011;20010;51.488;7.232;2023-07-16T00:00:27;5.68;;;5.22;;
33491;SDS011;20010;51.488;7.232;2023-07-16T00:02:54;5.43;;;5.03;;
33491;SDS011;20010;51.488;7.232;2023-07-16T00:05:21;4.95;;;4.55;;
33491;SDS011;20010;51.488;7.232;2023-07-16T00:07:48;5.82;;;5.43;;
33491;SDS011;20010;51.488;7.232;2023-07-16T00:10:14;5.40;;;4.93;;
33491;SDS011;20010;51.488;7.232;2023-07-16T00:12:41;5.05;;;4.65;;
33491;SDS011;20010;51.488;7.232;2023-07-16T00:15:08;5.20;;;4.90;;
33491;SDS011;20010;51.488;7.232;2023-07-16T00:17:35;5.50;;;5.00;;
33491;SDS011;20010;51.488;7.232;2023-07-16T00:20:02;5.47;;;5.13;;
33491;SDS011;20010;51.488;7.232;2023-07-16T00:22:30;6.68;;;5.53;;
33491;SDS011;20010;51.488;7.232;2023-07-16T00:24:57;5.78;;;5.22;;
33491;SDS011;20010;51.488;7.232;2023-07-16T00:27:23;5.38;;;5.07;;
33491;SDS011;20010;51.488;7.232;2023-07-16T00:29:50;5.38;;;5.07;;
33491;SDS011;20010;51.488;7.232;2023-07-16T00:32:16;5.70;;;5.30;;
33491;SDS011;20010;51.488;7.232;2023-07-16T00:34:43;6.00;;;5.50;;
33491;SDS011;20010;51.488;7.232;2023-07-16T00:37:10;5.45;;;5.15;;
33491;SDS011;20010;51.488;7.232;2023-07-16T00:39:37;5.88;;;5.03;;
33491;SDS011;20010;51.488;7.232;2023-07-16T00:42:03;7.03;;;4.95;;
33491;SDS011;20010;51.488;7.232;2023-07-16T00:44:30;5.30;;;4.78;;
33491;SDS011;20010;51.488;7.232;2023-07-16T00:46:57;5.28;;;4.90;;
33491;SDS011;20010;51.488;7.232;2023-07-16T00:49:23;5.95;;;5.32;;
33491;SDS011;20010;51.488;7.232;2023-07-16T00:51:50;5.38;;;4.85;;
33491;SDS011;20010;51.488;7.232;2023-07-16T00:54:18;5.97;;;5.57;;
33491;SDS011;20010;51.488;7.232;2023-07-16T00:56:45;5.13;;;4.72;;
33491;SDS011;20010;51.488;7.232;2023-07-16T00:59:12;6.18;;;5.68;;
33491;SDS011;20010;51.488;7.232;2023-07-16T01:01:38;5.32;;;4.82;;
33491;SDS011;20010;51.488;7.232;2023-07-16T01:04:06;5.38;;;4.93;;
33491;SDS011;20010;51.488;7.232;2023-07-16T01:06:36;5.88;;;5.30;;
33491;SDS011;20010;51.488;7.232;2023-07-16T01:09:10;5.43;;;4.90;;
33491;SDS011;20010;51.488;7.232;2023-07-16T01:11:39;5.75;;;5.25;;
33491;SDS011;20010;51.488;7.232;2023-07-16T01:14:06;6.22;;;5.20;;
33491;SDS011;20010;51.488;7.232;2023-07-16T01:16:34;5.35;;;4.90;;
33491;SDS011;20010;51.488;7.232;2023-07-16T01:19:01;6.95;;;5.30;;
33491;SDS011;20010;51.488;7.232;2023-07-16T01:21:34;5.78;;;5.30;;
33491;SDS011;20010;51.488;7.232;2023-07-16T01:29:36;5.65;;;5.30;;
33491;SDS011;20010;51.488;7.232;2023-07-16T01:32:07;5.70;;;5.25;;
33491;SDS011;20010;51.488;7.232;2023-07-16T01:34:34;5.10;;;4.70;;
33491;SDS011;20010;51.488;7.232;2023-07-16T01:37:02;5.97;;;5.35;;
33491;SDS011;20010;51.488;7.232;2023-07-16T01:39:29;5.57;;;5.13;;
33491;SDS011;20010;51.488;7.232;2023-07-16T01:41:58;4.97;;;4.63;;
33491;SDS011;20010;51.488;7.232;2023-07-16T01:44:25;5.70;;;5.32;;
33491;SDS011;20010;51.488;7.232;2023-07-16T01:46:57;5.50;;;5.10;;
33491;SDS011;20010;51.488;7.232;2023-07-16T01:49:32;5.93;;;5.40;;
33491;SDS011;20010;51.488;7.232;2023-07-16T01:51:59;5.90;;;5.45;;
33491;SDS011;20010;51.488;7.232;2023-07-16T01:54:27;6.10;;;5.60;;
33491;SDS011;20010;51.488;7.232;2023-07-16T01:56:53;5.65;;;5.15;;
33491;SDS011;20010;51.488;7.232;2023-07-16T01:59:20;6.43;;;5.45;;
33491;SDS011;20010;51.488;7.232;2023-07-16T02:01:46;5.45;;;5.05;;
33491;SDS011;20010;51.488;7.232;2023-07-16T02:04:13;6.07;;;5.47;;
33491;SDS011;20010;51.488;7.232;2023-07-16T02:06:40;5.70;;;5.32;;
33491;SDS011;20010;51.488;7.232;2023-07-16T02:09:06;5.45;;;5.03;;
33491;SDS011;20010;51.488;7.232;2023-07-16T02:11:33;5.72;;;5.22;;
33491;SDS011;20010;51.488;7.232;2023-07-16T02:13:59;5.50;;;5.10;;
33491;SDS011;20010;51.488;7.232;2023-07-16T02:16:26;5.60;;;5.10;;
33491;SDS011;20010;51.488;7.232;2023-07-16T02:18:54;7.00;;;5.57;;
33491;SDS011;20010;51.488;7.232;2023-07-16T02:21:20;6.20;;;5.78;;
33491;SDS011;20010;51.488;7.232;2023-07-16T02:23:47;6.30;;;5.50;;
33491;SDS011;20010;51.488;7.232;2023-07-16T02:26:13;7.50;;;5.00;;
33491;SDS011;20010;51.488;7.232;2023-07-16T02:28:40;5.32;;;4.95;;
33491;SDS011;20010;51.488;7.232;2023-07-16T02:31:07;5.38;;;5.07;;
33491;SDS011;20010;51.488;7.232;2023-07-16T02:33:34;5.55;;;5.13;;
33491;SDS011;20010;51.488;7.232;2023-07-16T02:36:00;5.70;;;5.22;;
33491;SDS011;20010;51.488;7.232;2023-07-16T02:38:27;6.07;;;5.20;;
33491;SDS011;20010;51.488;7.232;2023-07-16T02:40:53;5.75;;;5.25;;
33491;SDS011;20010;51.488;7.232;2023-07-16T02:43:20;5.20;;;4.90;;
33491;SDS011;20010;51.488;7.232;2023-07-16T02:45:47;5.90;;;5.40;;
33491;SDS011;20010;51.488;7.232;2023-07-16T02:48:13;6.28;;;5.68;;
33491;SDS011;20010;51.488;7.232;2023-07-16T02:50:40;7.03;;;5.60;;
33491;SDS011;20010;51.488;7.232;2023-07-16T02:53:07;5.75;;;5.25;;
33491;SDS011;20010;51.488;7.232;2023-07-16T02:55:34;5.75;;;5.35;;
33491;SDS011;20010;51.488;7.232;2023-07-16T02:58:01;7.78;;;5.47;;
33491;SDS011;20010;51.488;7.232;2023-07-16T03:00:30;6.65;;;5.50;;
33491;SDS011;20010;51.488;7.232;2023-07-16T03:02:58;5.82;;;5.32;;
33491;SDS011;20010;51.488;7.232;2023-07-16T03:05:25;5.68;;;5.18;;
33491;SDS011;20010;51.488;7.232;2023-07-16T03:07:52;6.50;;;5.10;;
33491;SDS011;20010;51.488;7.232;2023-07-16T03:10:21;7.15;;;6.45;;
33491;SDS011;20010;51.488;7.232;2023-07-16T03:12:48;5.85;;;5.22;;
33491;SDS011;20010;51.488;7.232;2023-07-16T03:15:15;5.90;;;5.40;;
33491;SDS011;20010;51.488;7.232;2023-07-16T03:17:42;6.15;;;4.95;;
33491;SDS011;20010;51.488;7.232;2023-07-16T03:20:08;5.93;;;5.30;;
33491;SDS011;20010;51.488;7.232;2023-07-16T03:22:36;6.18;;;5.60;;
33491;SDS011;20010;51.488;7.232;2023-07-16T03:25:03;5.70;;;5.20;;
33491;SDS011;20010;51.488;7.232;2023-07-16T03:27:29;7.10;;;5.38;;
33491;SDS011;20010;51.488;7.232;2023-07-16T03:29:56;6.43;;;5.05;;
33491;SDS011;20010;51.488;7.232;2023-07-16T03:32:23;5.93;;;5.38;;
33491;SDS011;20010;51.488;7.232;2023-07-16T03:35:03;5.77;;;5.23;;
33491;SDS011;20010;51.488;7.232;2023-07-16T03:37:30;8.80;;;5.55;;
33491;SDS011;20010;51.488;7.232;2023-07-16T03:39:56;7.13;;;5.45;;
33491;SDS011;20010;51.488;7.232;2023-07-16T03:42:23;6.10;;;5.60;;
33491;SDS011;20010;51.488;7.232;2023-07-16T03:44:49;6.25;;;5.20;;
33491;SDS011;20010;51.488;7.232;2023-07-16T03:47:16;6.10;;;5.50;;
33491;SDS011;20010;51.488;7.232;2023-07-16T03:49:43;5.88;;;5.47;;
33491;SDS011;20010;51.488;7.232;2023-07-16T03:52:09;8.05;;;6.32;;
33491;SDS011;20010;51.488;7.232;2023-07-16T03:54:36;6.82;;;6.20;;
33491;SDS011;20010;51.488;7.232;2023-07-16T03:57:02;6.43;;;5.93;;
33491;SDS011;20010;51.488;7.232;2023-07-16T03:59:29;6.65;;;5.80;;
33491;SDS011;20010;51.488;7.232;2023-07-16T04:01:56;6.00;;;5.40;;
33491;SDS011;20010;51.488;7.232;2023-07-16T04:04:22;6.45;;;5.70;;
33491;SDS011;20010;51.488;7.232;2023-07-16T04:06:49;6.82;;;6.00;;
33491;SDS011;20010;51.488;7.232;2023-07-16T04:09:16;6.15;;;5.53;;
33491;SDS011;20010;51.488;7.232;2023-07-16T04:11:42;7.93;;;6.20;;
33491;SDS011;20010;51.488;7.232;2023-07-16T04:14:09;7.05;;;5.85;;
33491;SDS011;20010;51.488;7.232;2023-07-16T04:16:35;6.57;;;6.00;;
33491;SDS011;20010;51.488;7.232;2023-07-16T04:19:02;6.18;;;5.60;;
33491;SDS011;20010;51.488;7.232;2023-07-16T04:21:28;6.68;;;6.10;;
33491;SDS011;20010;51.488;7.232;2023-07-16T04:23:55;6.70;;;6.10;;
33491;SDS011;20010;51.488;7.232;2023-07-16T04:26:22;6.75;;;6.13;;
33491;SDS011;20010;51.488;7.232;2023-07-16T04:28:48;8.93;;;6.97;;
33491;SDS011;20010;51.488;7.232;2023-07-16T04:31:15;6.57;;;5.90;;
33491;SDS011;20010;51.488;7.232;2023-07-16T04:33:42;6.47;;;6.07;;
33491;SDS011;20010;51.488;7.232;2023-07-16T04:36:08;8.68;;;6.07;;
33491;SDS011;20010;51.488;7.232;2023-07-16T04:38:35;11.23;;;6.22;;
33491;SDS011;20010;51.488;7.232;2023-07-16T04:41:01;6.90;;;5.80;;
33491;SDS011;20010;51.488;7.232;2023-07-16T04:43:28;6.10;;;5.70;;
33491;SDS011;20010;51.488;7.232;2023-07-16T04:45:55;6.85;;;6.22;;
33491;SDS011;20010;51.488;7.232;2023-07-16T04:48:21;7.00;;;6.40;;
33491;SDS011;20010;51.488;7.232;2023-07-16T04:50:48;7.93;;;6.85;;
33491;SDS011;20010;51.488;7.232;2023-07-16T04:53:14;6.75;;;6.00;;
33491;SDS011;20010;51.488;7.232;2023-07-16T04:55:44;6.10;;;5.65;;
33491;SDS011;20010;51.488;7.232;2023-07-16T04:58:11;8.13;;;6.18;;
33491;SDS011;20010;51.488;7.232;2023-07-16T05:00:38;7.43;;;6.50;;
33491;SDS011;20010;51.488;7.232;2023-07-16T05:03:04;9.07;;;7.28;;
33491;SDS011;20010;51.488;7.232;2023-07-16T05:05:31;9.15;;;6.30;;
33491;SDS011;20010;51.488;7.232;2023-07-16T05:07:58;7.10;;;6.60;;
33491;SDS011;20010;51.488;7.232;2023-07-16T05:10:25;10.13;;;6.80;;
33491;SDS011;20010;51.488;7.232;2023-07-16T05:12:52;7.53;;;6.82;;
33491;SDS011;20010;51.488;7.232;2023-07-16T05:15:19;9.30;;;7.18;;
33491;SDS011;20010;51.488;7.232;2023-07-16T05:17:46;7.90;;;7.03;;
33491;SDS011;20010;51.488;7.232;2023-07-16T05:20:13;8.38;;;7.47;;
33491;SDS011;20010;51.488;7.232;2023-07-16T05:22:39;7.70;;;7.00;;
33491;SDS011;20010;51.488;7.232;2023-07-16T05:25:06;7.95;;;7.18;;
33491;SDS011;20010;51.488;7.232;2023-07-16T05:27:33;8.35;;;7.63;;
33491;SDS011;20010;51.488;7.232;2023-07-16T05:30:00;7.70;;;7.07;;
33491;SDS011;20010;51.488;7.232;2023-07-16T05:32:26;8.48;;;6.93;;
33491;SDS011;20010;51.488;7.232;2023-07-16T05:34:53;10.20;;;7.78;;
33491;SDS011;20010;51.488;7.232;2023-07-16T05:37:19;10.35;;;7.30;;
33491;SDS011;20010;51.488;7.232;2023-07-16T05:39:46;7.28;;;6.63;;
33491;SDS011;20010;51.488;7.232;2023-07-16T05:42:13;7.32;;;6.82;;
33491;SDS011;20010;51.488;7.232;2023-07-16T05:44:39;8.25;;;7.45;;
33491;SDS011;20010;51.488;7.232;2023-07-16T05:47:06;7.88;;;6.80;;
33491;SDS011;20010;51.488;7.232;2023-07-16T05:49:32;8.90;;;8.10;;
33491;SDS011;20010;51.488;7.232;2023-07-16T05:51:59;8.18;;;7.40;;
33491;SDS011;20010;51.488;7.232;2023-07-16T05:54:25;10.13;;;8.07;;
33491;SDS011;20010;51.488;7.232;2023-07-16T05:56:52;7.93;;;7.20;;
33491;SDS011;20010;51.488;7.232;2023-07-16T05:59:19;7.88;;;7.32;;
33491;SDS011;20010;51.488;7.232;2023-07-16T06:01:46;9.95;;;8.50;;
33491;SDS011;20010;51.488;7.232;2023-07-16T06:04:12;12.32;;;7.88;;
33491;SDS011;20010;51.488;7.232;2023-07-16T06:06:40;9.32;;;7.72;;
33491;SDS011;20010;51.488;7.232;2023-07-16T06:09:06;9.15;;;8.27;;
33491;SDS011;20010;51.488;7.232;2023-07-16T06:11:33;8.30;;;7.47;;
33491;SDS011;20010;51.488;7.232;2023-07-16T06:14:01;8.43;;;7.85;;
33491;SDS011;20010;51.488;7.232;2023-07-16T06:16:28;9.45;;;8.50;;
33491;SDS011;20010;51.488;7.232;2023-07-16T06:18:55;10.18;;;9.15;;
33491;SDS011;20010;51.488;7.232;2023-07-16T06:21:21;9.45;;;8.50;;
33491;SDS011;20010;51.488;7.232;2023-07-16T06:23:48;9.48;;;8.32;;
33491;SDS011;20010;51.488;7.232;2023-07-16T06:26:14;8.65;;;7.93;;
33491;SDS011;20010;51.488;7.232;2023-07-16T06:28:41;9.85;;;8.93;;
33491;SDS011;20010;51.488;7.232;2023-07-16T06:31:08;11.02;;;8.38;;
33491;SDS011;20010;51.488;7.232;2023-07-16T06:33:35;9.40;;;8.73;;
33491;SDS011;20010;51.488;7.232;2023-07-16T06:36:01;9.77;;;8.88;;
33491;SDS011;20010;51.488;7.232;2023-07-16T06:38:28;10.10;;;9.20;;
33491;SDS011;20010;51.488;7.232;2023-07-16T06:40:56;9.30;;;8.48;;
33491;SDS011;20010;51.488;7.232;2023-07-16T06:43:22;12.38;;;9.95;;
33491;SDS011;20010;51.488;7.232;2023-07-16T06:45:49;10.40;;;9.43;;
33491;SDS011;20010;51.488;7.232;2023-07-16T06:48:17;9.90;;;9.00;;
33491;SDS011;20010;51.488;7.232;2023-07-16T06:50:44;9.88;;;8.82;;
33491;SDS011;20010;51.488;7.232;2023-07-16T06:53:11;10.35;;;9.57;;
33491;SDS011;20010;51.488;7.232;2023-07-16T06:55:37;11.05;;;9.57;;
33491;SDS011;20010;51.488;7.232;2023-07-16T06:58:04;10.50;;;9.00;;
33491;SDS011;20010;51.488;7.232;2023-07-16T07:00:31;10.45;;;9.18;;
33491;SDS011;20010;51.488;7.232;2023-07-16T07:02:58;9.50;;;8.68;;
33491;SDS011;20010;51.488;7.232;2023-07-16T07:05:25;10.85;;;9.88;;
33491;SDS011;20010;51.488;7.232;2023-07-16T07:07:51;10.45;;;9.52;;
33491;SDS011;20010;51.488;7.232;2023-07-16T07:10:18;9.95;;;9.02;;
33491;SDS011;20010;51.488;7.232;2023-07-16T07:12:44;10.43;;;9.52;;
33491;SDS011;20010;51.488;7.232;2023-07-16T07:15:11;10.90;;;9.90;;
33491;SDS011;20010;51.488;7.232;2023-07-16T07:17:38;10.13;;;9.32;;
33491;SDS011;20010;51.488;7.232;2023-07-16T07:20:05;11.70;;;9.68;;
33491;SDS011;20010;51.488;7.232;2023-07-16T07:22:32;10.88;;;9.55;;
33491;SDS011;20010;51.488;7.232;2023-07-16T07:24:59;10.07;;;9.27;;
33491;SDS011;20010;51.488;7.232;2023-07-16T07:27:26;10.38;;;9.32;;
33491;SDS011;20010;51.488;7.232;2023-07-16T07:29:52;10.48;;;9.40;;
33491;SDS011;20010;51.488;7.232;2023-07-16T07:32:21;11.00;;;9.65;;
33491;SDS011;20010;51.488;7.232;2023-07-16T07:34:48;10.32;;;9.13;;
33491;SDS011;20010;51.488;7.232;2023-07-16T07:37:15;10.20;;;9.30;;
33491;SDS011;20010;51.488;7.232;2023-07-16T07:39:42;13.05;;;9.65;;
33491;SDS011;20010;51.488;7.232;2023-07-16T07:42:08;10.90;;;8.75;;
33491;SDS011;20010;51.488;7.232;2023-07-16T07:44:36;10.05;;;9.15;;
33491;SDS011;20010;51.488;7.232;2023-07-16T07:47:03;9.95;;;9.00;;
33491;SDS011;20010;51.488;7.232;2023-07-16T07:49:31;10.57;;;9.45;;
33491;SDS011;20010;51.488;7.232;2023-07-16T07:51:57;12.38;;;9.45;;
33491;SDS011;20010;51.488;7.232;2023-07-16T07:54:24;9.52;;;8.60;;
33491;SDS011;20010;51.488;7.232;2023-07-16T07:56:50;9.75;;;8.85;;
33491;SDS011;20010;51.488;7.232;2023-07-16T07:59:17;10.38;;;9.00;;
33491;SDS011;20010;51.488;7.232;2023-07-16T08:01:44;10.07;;;9.18;;
33491;SDS011;20010;51.488;7.232;2023-07-16T08:04:10;11.90;;;9.20;;
33491;SDS011;20010;51.488;7.232;2023-07-16T08:06:37;11.05;;;9.68;;
33491;SDS011;20010;51.488;7.232;2023-07-16T08:09:04;14.07;;;12.07;;
33491;SDS011;20010;51.488;7.232;2023-07-16T08:11:31;9.90;;;9.20;;
33491;SDS011;20010;51.488;7.232;2023-07-16T08:13:57;11.00;;;9.68;;
33491;SDS011;20010;51.488;7.232;2023-07-16T08:16:24;9.98;;;9.18;;
33491;SDS011;20010;51.488;7.232;2023-07-16T08:18:50;10.85;;;9.80;;
33491;SDS011;20010;51.488;7.232;2023-07-16T08:21:17;11.55;;;10.48;;
33491;SDS011;20010;51.488;7.232;2023-07-16T08:23:47;11.07;;;10.15;;
33491;SDS011;20010;51.488;7.232;2023-07-16T08:26:15;10.60;;;9.60;;
33491;SDS011;20010;51.488;7.232;2023-07-16T08:28:42;10.45;;;9.27;;
33491;SDS011;20010;51.488;7.232;2023-07-16T08:31:10;9.27;;;8.38;;
33491;SDS011;20010;51.488;7.232;2023-07-16T08:33:38;9.90;;;8.90;;
33491;SDS011;20010;51.488;7.232;2023-07-16T08:36:05;9.40;;;8.50;;
33491;SDS011;20010;51.488;7.232;2023-07-16T08:38:31;9.40;;;8.60;;
33491;SDS011;20010;51.488;7.232;2023-07-16T08:40:59;10.52;;;9.63;;
33491;SDS011;20010;51.488;7.232;2023-07-16T08:43:26;10.40;;;9.60;;
33491;SDS011;20010;51.488;7.232;2023-07-16T08:45:55;11.15;;;10.25;;
33491;SDS011;20010;51.488;7.232;2023-07-16T08:48:22;10.88;;;9.82;;
33491;SDS011;20010;51.488;7.232;2023-07-16T08:50:49;10.35;;;9.32;;
33491;SDS011;20010;51.488;7.232;2023-07-16T08:53:15;10.30;;;9.38;;
33491;SDS011;20010;51.488;7.232;2023-07-16T08:55:46;19.90;;;9.48;;
33491;SDS011;20010;51.488;7.232;2023-07-16T08:58:17;9.68;;;8.98;;
33491;SDS011;20010;51.488;7.232;2023-07-16T09:00:45;9.23;;;8.43;;
33491;SDS011;20010;51.488;7.232;2023-07-16T09:03:12;9.85;;;8.93;;
33491;SDS011;20010;51.488;7.232;2023-07-16T09:05:44;9.52;;;8.73;;
33491;SDS011;20010;51.488;7.232;2023-07-16T09:08:11;10.98;;;8.88;;
33491;SDS011;20010;51.488;7.232;2023-07-16T09:10:42;9.77;;;8.88;;
33491;SDS011;20010;51.488;7.232;2023-07-16T09:13:09;9.32;;;8.52;;
33491;SDS011;20010;51.488;7.232;2023-07-16T09:15:36;8.93;;;8.13;;
33491;SDS011;20010;51.488;7.232;2023-07-16T09:18:05;9.40;;;8.60;;
33491;SDS011;20010;51.488;7.232;2023-07-16T09:20:32;8.27;;;7.57;;
33491;SDS011;20010;51.488;7.232;2023-07-16T09:22:59;8.55;;;7.68;;
33491;SDS011;20010;51.488;7.232;2023-07-16T09:25:26;8.93;;;8.13;;
33491;SDS011;20010;51.488;7.232;2023-07-16T09:27:57;10.18;;;8.35;;
33491;SDS011;20010;51.488;7.232;2023-07-16T09:30:24;8.32;;;7.72;;
33491;SDS011;20010;51.488;7.232;2023-07-16T09:32:51;8.30;;;7.60;;
33491;SDS011;20010;51.488;7.232;2023-07-16T09:35:17;8.38;;;7.78;;
33491;SDS011;20010;51.488;7.232;2023-07-16T09:37:44;9.25;;;8.35;;
33491;SDS011;20010;51.488;7.232;2023-07-16T09:40:11;10.00;;;8.73;;
33491;SDS011;20010;51.488;7.232;2023-07-16T09:42:41;9.43;;;8.60;;
33491;SDS011;20010;51.488;7.232;2023-07-16T09:45:16;9.40;;;8.50;;
33491;SDS011;20010;51.488;7.232;2023-07-16T09:47:44;8.70;;;7.97;;
33491;SDS011;20010;51.488;7.232;2023-07-16T09:50:11;9.20;;;8.52;;
33491;SDS011;20010;51.488;7.232;2023-07-16T09:52:38;9.50;;;8.77;;
33491;SDS011;20010;51.488;7.232;2023-07-16T09:55:08;10.07;;;9.25;;
33491;SDS011;20010;51.488;7.232;2023-07-16T09:57:37;8.98;;;8.18;;
33491;SDS011;20010;51.488;7.232;2023-07-16T10:00:10;9.07;;;8.40;;
33491;SDS011;20010;51.488;7.232;2023-07-16T10:02:39;8.45;;;7.75;;
33491;SDS011;20010;51.488;7.232;2023-07-16T10:05:16;7.97;;;7.28;;
33491;SDS011;20010;51.488;7.232;2023-07-16T10:07:50;8.30;;;7.60;;
33491;SDS011;20010;51.488;7.232;2023-07-16T10:10:20;9.90;;;8.98;;
33491;SDS011;20010;51.488;7.232;2023-07-16T10:12:58;8.77;;;8.02;;
33491;SDS011;20010;51.488;7.232;2023-07-16T10:15:28;9.23;;;8.27;;
33491;SDS011;20010;51.488;7.232;2023-07-16T10:17:56;9.18;;;8.40;;
33491;SDS011;20010;51.488;7.232;2023-07-16T10:23:14;9.85;;;9.18;;
33491;SDS011;20010;51.488;7.232;2023-07-16T10:26:00;9.68;;;8.93;;
33491;SDS011;20010;51.488;7.232;2023-07-16T10:28:27;9.70;;;8.85;;
33491;SDS011;20010;51.488;7.232;2023-07-16T10:30:54;8.95;;;8.25;;
33491;SDS011;20010;51.488;7.232;2023-07-16T10:33:20;8.90;;;8.05;;
33491;SDS011;20010;51.488;7.232;2023-07-16T10:35:47;9.38;;;8.30;;
33491;SDS011;20010;51.488;7.232;2023-07-16T10:38:14;11.40;;;9.88;;
33491;SDS011;20010;51.488;7.232;2023-07-16T10:40:44;8.75;;;7.95;;
33491;SDS011;20010;51.488;7.232;2023-07-16T10:43:11;10.23;;;9.02;;
33491;SDS011;20010;51.488;7.232;2023-07-16T10:45:38;8.82;;;7.93;;
33491;SDS011;20010;51.488;7.232;2023-07-16T10:48:06;14.48;;;8.68;;
33491;SDS011;20010;51.488;7.232;2023-07-16T10:50:33;12.05;;;8.60;;
33491;SDS011;20010;51.488;7.232;2023-07-16T10:53:00;10.52;;;9.40;;
33491;SDS011;20010;51.488;7.232;2023-07-16T10:55:28;8.75;;;8.13;;
33491;SDS011;20010;51.488;7.232;2023-07-16T10:57:56;8.75;;;8.15;;
33491;SDS011;20010;51.488;7.232;2023-07-16T11:00:22;8.88;;;8.02;;
33491;SDS011;20010;51.488;7.232;2023-07-16T11:02:49;8.60;;;7.90;;
33491;SDS011;20010;51.488;7.232;2023-07-16T11:06:58;8.65;;;7.95;;
33491;SDS011;20010;51.488;7.232;2023-07-16T11:09:25;8.98;;;8.38;;
33491;SDS011;20010;51.488;7.232;2023-07-16T11:11:52;9.10;;;8.20;;
33491;SDS011;20010;51.488;7.232;2023-07-16T11:14:18;8.25;;;7.55;;
33491;SDS011;20010;51.488;7.232;2023-07-16T11:16:45;9.65;;;8.75;;
33491;SDS011;20010;51.488;7.232;2023-07-16T11:19:13;8.38;;;7.75;;
33491;SDS011;20010;51.488;7.232;2023-07-16T11:21:39;8.85;;;8.05;;
33491;SDS011;20010;51.488;7.232;2023-07-16T11:24:07;8.38;;;7.78;;
33491;SDS011;20010;51.488;7.232;2023-07-16T11:26:39;9.05;;;8.35;;
33491;SDS011;20010;51.488;7.232;2023-07-16T11:29:12;8.90;;;8.27;;
33491;SDS011;20010;51.488;7.232;2023-07-16T11:31:40;8.80;;;8.15;;
33491;SDS011;20010;51.488;7.232;2023-07-16T11:34:07;9.00;;;8.30;;
33491;SDS011;20010;51.488;7.232;2023-07-16T11:36:38;8.45;;;7.75;;
33491;SDS011;20010;51.488;7.232;2023-07-16T11:39:05;12.02;;;7.93;;
33491;SDS011;20010;51.488;7.232;2023-07-16T11:41:31;8.55;;;7.72;;
33491;SDS011;20010;51.488;7.232;2023-07-16T11:44:01;8.75;;;7.97;;
33491;SDS011;20010;51.488;7.232;2023-07-16T11:46:31;9.52;;;8.10;;
33491;SDS011;20010;51.488;7.232;2023-07-16T11:49:01;9.05;;;7.90;;
33491;SDS011;20010;51.488;7.232;2023-07-16T11:51:28;8.95;;;8.25;;
33491;SDS011;20010;51.488;7.232;2023-07-16T11:53:56;7.78;;;7.18;;
33491;SDS011;20010;51.488;7.232;2023-07-16T11:56:23;8.63;;;8.02;;
33491;SDS011;20010;51.488;7.232;2023-07-16T11:58:50;8.90;;;8.00;;
33491;SDS011;20010;51.488;7.232;2023-07-16T12:01:17;8.88;;;8.18;;
33491;SDS011;20010;51.488;7.232;2023-07-16T12:03:43;7.82;;;7.18;;
33491;SDS011;20010;51.488;7.232;2023-07-16T12:06:10;7.72;;;7.03;;
33491;SDS011;20010;51.488;7.232;2023-07-16T12:08:37;8.73;;;7.90;;
33491;SDS011;20010;51.488;7.232;2023-07-16T12:11:03;8.27;;;7.50;;
33491;SDS011;20010;51.488;7.232;2023-07-16T12:13:30;8.45;;;7.53;;
33491;SDS011;20010;51.488;7.232;2023-07-16T12:15:56;9.30;;;8.18;;
33491;SDS011;20010;51.488;7.232;2023-07-16T12:18:23;10.70;;;7.68;;
33491;SDS011;20010;51.488;7.232;2023-07-16T12:20:50;8.20;;;7.38;;
33491;SDS011;20010;51.488;7.232;2023-07-16T12:23:16;10.95;;;8.25;;
33491;SDS011;20010;51.488;7.232;2023-07-16T12:25:43;9.63;;;8.73;;
33491;SDS011;20010;51.488;7.232;2023-07-16T12:28:09;8.57;;;7.78;;
33491;SDS011;20010;51.488;7.232;2023-07-16T12:30:36;8.77;;;8.18;;
33491;SDS011;20010;51.488;7.232;2023-07-16T12:33:03;8.38;;;7.55;;
33491;SDS011;20010;51.488;7.232;2023-07-16T12:35:30;8.30;;;7.50;;
33491;SDS011;20010;51.488;7.232;2023-07-16T12:37:57;7.90;;;7.25;;
33491;SDS011;20010;51.488;7.232;2023-07-16T12:40:25;9.57;;;7.55;;
33491;SDS011;20010;51.488;7.232;2023-07-16T12:42:52;9.32;;;8.43;;
33491;SDS011;20010;51.488;7.232;2023-07-16T12:45:18;8.05;;;7.25;;
33491;SDS011;20010;51.488;7.232;2023-07-16T12:47:45;9.18;;;7.88;;
33491;SDS011;20010;51.488;7.232;2023-07-16T12:50:12;8.60;;;7.82;;
33491;SDS011;20010;51.488;7.232;2023-07-16T12:52:39;7.57;;;6.97;;
33491;SDS011;20010;51.488;7.232;2023-07-16T12:55:05;8.38;;;7.10;;
33491;SDS011;20010;51.488;7.232;2023-07-16T12:57:32;8.77;;;7.63;;
33491;SDS011;20010;51.488;7.232;2023-07-16T12:59:59;10.27;;;7.75;;
33491;SDS011;20010;51.488;7.232;2023-07-16T13:02:26;8.65;;;7.82;;
33491;SDS011;20010;51.488;7.232;2023-07-16T13:04:52;9.27;;;7.32;;
33491;SDS011;20010;51.488;7.232;2023-07-16T13:07:19;7.38;;;6.95;;
33491;SDS011;20010;51.488;7.232;2023-07-16T13:09:46;7.75;;;7.15;;
33491;SDS011;20010;51.488;7.232;2023-07-16T13:12:12;8.20;;;7.40;;
33491;SDS011;20010;51.488;7.232;2023-07-16T13:14:39;8.50;;;7.75;;
33491;SDS011;20010;51.488;7.232;2023-07-16T13:17:05;8.02;;;7.35;;
33491;SDS011;20010;51.488;7.232;2023-07-16T13:19:32;8.38;;;7.68;;
33491;SDS011;20010;51.488;7.232;2023-07-16T13:21:59;8.68;;;7.90;;
33491;SDS011;20010;51.488;7.232;2023-07-16T13:24:25;8.50;;;7.90;;
33491;SDS011;20010;51.488;7.232;2023-07-16T13:26:52;8.32;;;7.68;;
33491;SDS011;20010;51.488;7.232;2023-07-16T13:29:18;8.85;;;7.97;;
33491;SDS011;20010;51.488;7.232;2023-07-16T13:31:45;8.45;;;7.75;;
33491;SDS011;20010;51.488;7.232;2023-07-16T13:34:12;8.00;;;7.40;;
33491;SDS011;20010;51.488;7.232;2023-07-16T13:36:38;7.82;;;7.22;;
33491;SDS011;20010;51.488;7.232;2023-07-16T13:39:05;8.40;;;7.70;;
33491;SDS011;20010;51.488;7.232;2023-07-16T13:41:31;8.45;;;7.75;;
33491;SDS011;20010;51.488;7.232;2023-07-16T13:43:58;9.43;;;8.50;;
33491;SDS011;20010;51.488;7.232;2023-07-16T13:46:25;8.80;;;8.05;;
33491;SDS011;20010;51.488;7.232;2023-07-16T13:48:52;8.48;;;7.70;;
33491;SDS011;20010;51.488;7.232;2023-07-16T13:51:24;8.27;;;7.55;;
33491;SDS011;20010;51.488;7.232;2023-07-16T13:53:52;9.65;;;7.72;;
33491;SDS011;20010;51.488;7.232;2023-07-16T13:56:18;12.15;;;8.77;;
33491;SDS011;20010;51.488;7.232;2023-07-16T13:58:45;8.32;;;7.78;;
33491;SDS011;20010;51.488;7.232;2023-07-16T14:01:12;8.27;;;7.63;;
33491;SDS011;20010;51.488;7.232;2023-07-16T14:03:39;9.07;;;8.48;;
33491;SDS011;20010;51.488;7.232;2023-07-16T14:06:05;10.30;;;8.55;;
33491;SDS011;20010;51.488;7.232;2023-07-16T14:08:32;8.65;;;7.95;;
33491;SDS011;20010;51.488;7.232;2023-07-16T14:11:00;8.85;;;8.10;;
33491;SDS011;20010;51.488;7.232;2023-07-16T14:13:27;8.50;;;7.70;;
33491;SDS011;20010;51.488;7.232;2023-07-16T14:15:53;8.88;;;8.20;;
33491;SDS011;20010;51.488;7.232;2023-07-16T14:18:20;10.65;;;9.02;;
33491;SDS011;20010;51.488;7.232;2023-07-16T14:20:46;8.68;;;8.07;;
33491;SDS011;20010;51.488;7.232;2023-07-16T14:23:13;9.35;;;8.15;;
33491;SDS011;20010;51.488;7.232;2023-07-16T14:25:40;9.68;;;8.85;;
33491;SDS011;20010;51.488;7.232;2023-07-16T14:28:07;9.35;;;8.57;;
33491;SDS011;20010;51.488;7.232;2023-07-16T14:30:33;9.27;;;8.57;;
33491;SDS011;20010;51.488;7.232;2023-07-16T14:33:00;10.02;;;8.95;;
33491;SDS011;20010;51.488;7.232;2023-07-16T14:35:30;10.68;;;9.00;;
33491;SDS011;20010;51.488;7.232;2023-07-16T14:38:02;12.65;;;11.60;;
33491;SDS011;20010;51.488;7.232;2023-07-16T14:40:29;10.05;;;9.25;;
33491;SDS011;20010;51.488;7.232;2023-07-16T14:42:56;9.43;;;8.45;;
33491;SDS011;20010;51.488;7.232;2023-07-16T14:45:22;8.85;;;8.15;;
33491;SDS011;20010;51.488;7.232;2023-07-16T14:47:49;8.50;;;7.90;;
33491;SDS011;20010;51.488;7.232;2023-07-16T14:50:16;9.20;;;8.52;;
33491;SDS011;20010;51.488;7.232;2023-07-16T14:52:42;9.90;;;9.10;;
33491;SDS011;20010;51.488;7.232;2023-07-16T14:55:09;11.70;;;10.75;;